createdAt,value
2019-03-01T00:02:28.632Z,57.85
2019-03-01T00:05:27.430Z,56.73
2019-03-01T00:08:20.477Z,55.70
2019-03-01T00:11:37.533Z,56.08
2019-03-01T00:14:35.834Z,51.55
2019-03-01T00:17:34.036Z,53.90
2019-03-01T00:20:54.604Z,54.73
2019-03-01T00:23:47.705Z,52.48
2019-03-01T00:26:31.234Z,51.00
2019-03-01T00:29:36.381Z,48.23
2019-03-01T00:32:35.107Z,49.60
2019-03-01T00:35:48.568Z,50.43
2019-03-01T00:38:50.573Z,51.85
2019-03-01T00:42:01.220Z,52.05
2019-03-01T00:44:32.540Z,50.95
2019-03-01T00:47:02.018Z,50.03
2019-03-01T00:49:32.935Z,49.10
2019-03-01T00:52:02.384Z,50.75
2019-03-01T00:54:31.992Z,49.88
2019-03-01T00:57:01.430Z,50.65
2019-03-01T00:59:30.914Z,51.13
2019-03-01T01:02:00.370Z,50.35
2019-03-01T01:04:30.310Z,51.28
2019-03-01T01:06:59.741Z,52.73
2019-03-01T01:09:29.196Z,54.23
2019-03-01T01:11:58.639Z,52.05
2019-03-01T01:14:28.083Z,51.42
2019-03-01T01:16:57.540Z,52.50
2019-03-01T01:19:27.363Z,53.08
2019-03-01T01:21:56.809Z,55.85
2019-03-01T01:24:26.304Z,55.88
2019-03-01T01:26:56.096Z,55.12
2019-03-01T01:29:25.588Z,55.52
2019-03-01T01:31:55.042Z,53.40
2019-03-01T01:34:24.823Z,51.13
2019-03-01T01:36:54.645Z,52.27
2019-03-01T01:39:24.119Z,52.73
2019-03-01T01:41:53.582Z,50.90
2019-03-01T01:44:23.045Z,54.85
2019-03-01T01:46:52.507Z,54.20
2019-03-01T01:49:21.969Z,52.75
2019-03-01T01:51:51.512Z,53.10
2019-03-01T01:54:20.983Z,57.05
2019-03-01T01:56:50.445Z,56.02
2019-03-01T01:59:19.904Z,55.05
2019-03-01T02:01:49.351Z,56.48
2019-03-01T02:04:18.768Z,58.78
2019-03-01T02:06:48.263Z,53.40
2019-03-01T02:09:24.553Z,54.53
2019-03-01T02:11:54.097Z,54.27
2019-03-01T02:14:23.669Z,55.73
2019-03-01T02:16:53.524Z,56.92
2019-03-01T02:19:22.978Z,56.55
2019-03-01T02:21:52.427Z,57.15
2019-03-01T02:24:21.848Z,54.40
2019-03-01T02:26:51.303Z,56.60
2019-03-01T02:29:20.772Z,58.85
2019-03-01T02:31:56.087Z,62.05
2019-03-01T02:34:25.562Z,62.25
2019-03-01T02:36:55.017Z,64.32
2019-03-01T02:39:24.499Z,67.12
2019-03-01T02:41:53.947Z,68.60
2019-03-01T02:44:23.503Z,72.65
2019-03-01T02:46:52.931Z,72.92
2019-03-01T02:49:22.416Z,74.45
2019-03-01T02:51:51.866Z,78.07
2019-03-01T02:54:21.299Z,81.55
2019-03-01T02:56:50.770Z,83.70
2019-03-01T02:59:20.219Z,79.58
2019-03-01T03:01:49.692Z,82.78
2019-03-01T03:04:19.126Z,84.75
2019-03-01T03:07:00.221Z,85.15
2019-03-01T03:09:30.000Z,85.60
2019-03-01T03:11:59.427Z,84.28
2019-03-01T03:14:28.859Z,86.08
2019-03-01T03:16:58.422Z,85.83
2019-03-01T03:19:27.852Z,83.75
2019-03-01T03:21:57.323Z,83.00
2019-03-01T03:24:26.766Z,84.95
2019-03-01T03:26:56.195Z,87.45
2019-03-01T03:29:26.783Z,82.42
2019-03-01T03:31:56.263Z,85.87
2019-03-01T03:34:25.693Z,84.03
2019-03-01T03:36:55.152Z,84.47
2019-03-01T03:39:24.600Z,81.10
2019-03-01T03:41:54.039Z,80.50
2019-03-01T03:44:23.494Z,83.85
2019-03-01T03:46:52.985Z,80.47
2019-03-01T03:49:22.434Z,80.70
2019-03-01T03:51:51.894Z,79.72
2019-03-01T03:54:21.374Z,81.78
2019-03-01T03:56:51.274Z,80.67
2019-03-01T03:59:20.726Z,77.62
2019-03-01T04:01:50.178Z,79.15
2019-03-01T04:04:19.619Z,80.05
2019-03-01T04:06:49.068Z,82.85
2019-03-01T04:09:19.319Z,81.67
2019-03-01T04:11:48.756Z,77.32
2019-03-01T04:14:18.375Z,77.12
2019-03-01T04:16:47.853Z,74.53
2019-03-01T04:19:17.670Z,73.20
2019-03-01T04:21:47.481Z,71.12
2019-03-01T04:24:17.288Z,74.17
2019-03-01T04:26:46.765Z,67.85
2019-03-01T04:29:16.197Z,72.72
2019-03-01T04:31:45.641Z,68.70
2019-03-01T04:34:15.727Z,68.70
2019-03-01T04:36:45.181Z,70.83
2019-03-01T04:39:15.267Z,64.55
2019-03-01T04:41:44.687Z,68.80
2019-03-01T04:44:14.112Z,69.30
2019-03-01T04:46:43.575Z,67.27
2019-03-01T04:49:13.040Z,67.60
2019-03-01T04:51:42.496Z,65.80
2019-03-01T04:54:11.916Z,70.12
2019-03-01T04:56:41.815Z,66.87
2019-03-01T04:59:11.240Z,65.42
2019-03-01T05:01:41.041Z,65.40
2019-03-01T05:04:12.139Z,62.93
2019-03-01T05:06:41.713Z,67.42
2019-03-01T05:09:11.524Z,65.80
2019-03-01T05:11:40.966Z,62.48
2019-03-01T05:14:10.383Z,61.48
2019-03-01T05:16:39.830Z,60.95
2019-03-01T05:19:09.287Z,63.23
2019-03-01T05:21:38.725Z,62.00
2019-03-01T05:24:08.456Z,62.05
2019-03-01T05:26:37.877Z,66.33
2019-03-01T05:29:07.356Z,75.83
2019-03-01T05:31:36.771Z,87.15
2019-03-01T05:34:06.804Z,99.17
2019-03-01T05:36:36.716Z,100.38
2019-03-01T05:39:06.526Z,80.87
2019-03-01T05:41:35.961Z,81.10
2019-03-01T05:44:05.437Z,81.37
2019-03-01T05:46:34.871Z,73.15
2019-03-01T05:49:04.321Z,76.22
2019-03-01T05:51:33.784Z,75.20
2019-03-01T05:54:03.225Z,74.82
2019-03-01T05:56:32.664Z,67.85
2019-03-01T05:59:13.338Z,65.03
2019-03-01T06:02:22.357Z,68.42
2019-03-01T06:05:05.257Z,60.03
2019-03-01T06:08:33.655Z,60.43
2019-03-01T06:11:25.461Z,57.58
2019-03-01T06:14:12.178Z,53.90
2019-03-01T06:17:22.697Z,52.75
2019-03-01T06:20:16.524Z,53.15
2019-03-01T06:23:12.858Z,52.58
2019-03-01T06:26:37.839Z,50.15
2019-03-01T06:29:27.897Z,48.70
2019-03-01T06:32:59.497Z,47.03
2019-03-01T06:35:57.608Z,47.25
2019-03-01T06:39:19.007Z,45.03
2019-03-01T06:42:31.931Z,43.92
2019-03-01T06:45:29.669Z,45.17
2019-03-01T06:47:59.104Z,40.75
2019-03-01T06:50:41.742Z,39.70
2019-03-01T06:53:11.176Z,37.83
2019-03-01T06:55:51.802Z,38.02
2019-03-01T06:58:32.976Z,37.30
2019-03-01T07:01:10.023Z,35.78
2019-03-01T07:03:39.465Z,35.00
2019-03-01T07:06:08.877Z,35.63
2019-03-01T07:08:38.329Z,33.88
2019-03-01T07:11:07.747Z,34.45
2019-03-01T07:13:37.171Z,34.63
2019-03-01T07:16:06.590Z,32.85
2019-03-01T07:18:36.033Z,32.50
2019-03-01T07:21:05.743Z,33.08
2019-03-01T07:23:36.985Z,31.48
2019-03-01T07:26:06.279Z,30.32
2019-03-01T07:28:35.739Z,32.05
2019-03-01T07:31:07.078Z,30.65
2019-03-01T07:33:36.728Z,30.15
2019-03-01T07:36:06.477Z,28.45
2019-03-01T07:38:36.013Z,28.15
2019-03-01T07:41:05.380Z,28.60
2019-03-01T07:43:34.843Z,30.25
2019-03-01T07:46:04.254Z,28.60
2019-03-01T07:48:33.691Z,26.93
2019-03-01T07:51:03.096Z,24.57
2019-03-01T07:53:35.971Z,25.85
2019-03-01T07:56:05.113Z,27.85
2019-03-01T07:58:34.749Z,26.33
2019-03-01T08:01:04.175Z,25.35
2019-03-01T08:03:33.602Z,26.57
2019-03-01T08:06:03.202Z,26.52
2019-03-01T08:08:34.797Z,27.60
2019-03-01T08:11:04.080Z,29.85
2019-03-01T08:13:33.518Z,37.70
2019-03-01T08:16:02.973Z,35.03
2019-03-01T08:18:32.438Z,44.30
2019-03-01T08:21:06.407Z,40.98
2019-03-01T08:23:35.114Z,35.40
2019-03-01T08:26:06.248Z,34.40
2019-03-01T08:28:35.658Z,31.82
2019-03-01T08:31:05.116Z,31.48
2019-03-01T08:33:34.538Z,32.98
2019-03-01T08:36:05.852Z,33.70
2019-03-01T08:38:35.172Z,31.30
2019-03-01T08:41:04.631Z,31.62
2019-03-01T08:43:35.736Z,31.90
2019-03-01T08:46:05.476Z,31.40
2019-03-01T08:48:36.190Z,31.68
2019-03-01T08:51:06.002Z,31.07
2019-03-01T08:53:35.777Z,28.50
2019-03-01T08:56:06.026Z,30.23
2019-03-01T08:58:37.720Z,28.90
2019-03-01T09:01:09.695Z,29.23
2019-03-01T09:03:43.114Z,29.10
2019-03-01T09:06:12.543Z,29.00
2019-03-01T09:08:43.022Z,28.40
2019-03-01T09:11:13.066Z,28.50
2019-03-01T09:13:42.489Z,30.30
2019-03-01T09:16:11.930Z,28.35
2019-03-01T09:18:41.337Z,26.23
2019-03-01T09:21:12.953Z,27.98
2019-03-01T09:23:41.849Z,26.35
2019-03-01T09:26:11.338Z,25.40
2019-03-01T09:28:40.753Z,24.60
2019-03-01T09:31:10.221Z,24.47
2019-03-01T09:33:39.986Z,23.12
2019-03-01T09:36:21.372Z,24.57
2019-03-01T09:38:51.082Z,24.90
2019-03-01T09:41:20.524Z,22.82
2019-03-01T09:43:50.400Z,23.38
2019-03-01T09:46:20.852Z,21.90
2019-03-01T09:48:50.923Z,21.45
2019-03-01T09:51:20.359Z,22.40
2019-03-01T09:53:50.182Z,23.05
2019-03-01T09:56:19.730Z,21.10
2019-03-01T09:58:49.611Z,22.32
2019-03-01T10:01:19.898Z,22.30
2019-03-01T10:03:50.057Z,22.05
2019-03-01T10:06:19.485Z,22.50
2019-03-01T10:08:48.896Z,22.42
2019-03-01T10:11:18.671Z,22.85
2019-03-01T10:13:48.128Z,24.23
2019-03-01T10:16:17.553Z,22.40
2019-03-01T10:18:46.995Z,23.00
2019-03-01T10:21:16.433Z,24.07
2019-03-01T10:23:45.865Z,24.02
2019-03-01T10:26:16.032Z,24.35
2019-03-01T10:28:45.853Z,25.25
2019-03-01T10:31:15.307Z,22.20
2019-03-01T10:33:44.741Z,24.15
2019-03-01T10:36:14.225Z,24.67
2019-03-01T10:38:43.663Z,22.50
2019-03-01T10:41:13.425Z,24.02
2019-03-01T10:43:42.847Z,26.25
2019-03-01T10:46:12.277Z,24.27
2019-03-01T10:48:43.649Z,25.12
2019-03-01T10:51:13.049Z,24.00
2019-03-01T10:53:42.945Z,25.92
2019-03-01T10:56:12.362Z,25.15
2019-03-01T10:58:42.165Z,25.72
2019-03-01T11:01:11.603Z,26.33
2019-03-01T11:03:41.421Z,26.10
2019-03-01T11:06:10.841Z,25.97
2019-03-01T11:08:40.285Z,24.98
2019-03-01T11:11:10.065Z,25.35
2019-03-01T11:13:39.475Z,25.08
2019-03-01T11:16:08.984Z,24.90
2019-03-01T11:18:38.452Z,24.18
2019-03-01T11:21:07.973Z,24.60
2019-03-01T11:23:37.441Z,24.05
2019-03-01T11:26:06.880Z,23.80
2019-03-01T11:28:36.329Z,22.73
2019-03-01T11:31:05.774Z,23.12
2019-03-01T11:33:35.199Z,24.20
2019-03-01T11:36:04.964Z,24.43
2019-03-01T11:38:34.391Z,24.92
2019-03-01T11:41:03.821Z,23.75
2019-03-01T11:43:33.278Z,23.62
2019-03-01T11:46:02.714Z,23.30
2019-03-01T11:48:32.164Z,22.02
2019-03-01T11:51:01.602Z,22.52
2019-03-01T11:53:31.387Z,22.80
2019-03-01T11:56:00.815Z,24.27
2019-03-01T11:58:30.246Z,25.55
2019-03-01T12:00:59.689Z,22.82
2019-03-01T12:03:29.556Z,22.15
2019-03-01T12:05:58.989Z,20.02
2019-03-01T12:08:29.160Z,20.08
2019-03-01T12:10:58.867Z,19.12
2019-03-01T12:13:28.419Z,19.17
2019-03-01T12:15:57.844Z,18.85
2019-03-01T12:18:27.254Z,19.48
2019-03-01T12:20:56.743Z,19.92
2019-03-01T12:23:29.158Z,20.65
2019-03-01T12:25:58.618Z,19.15
2019-03-01T12:28:28.400Z,19.05
2019-03-01T12:30:57.814Z,19.30
2019-03-01T12:33:27.226Z,20.27
2019-03-01T12:35:56.637Z,19.82
2019-03-01T12:38:26.101Z,20.17
2019-03-01T12:40:55.507Z,20.40
2019-03-01T12:43:24.950Z,20.80
2019-03-01T12:45:54.362Z,21.35
2019-03-01T12:48:23.890Z,19.77
2019-03-01T12:50:53.295Z,22.13
2019-03-01T12:53:23.071Z,21.57
2019-03-01T12:55:52.545Z,20.62
2019-03-01T12:58:21.970Z,22.40
2019-03-01T13:00:51.383Z,22.90
2019-03-01T13:03:20.836Z,21.85
2019-03-01T13:05:50.251Z,23.20
2019-03-01T13:08:19.717Z,22.70
2019-03-01T13:10:49.140Z,24.00
2019-03-01T13:13:18.572Z,23.75
2019-03-01T13:15:49.632Z,22.90
2019-03-01T13:18:19.109Z,23.87
2019-03-01T13:20:48.524Z,21.42
2019-03-01T13:23:18.003Z,23.65
2019-03-01T13:25:47.414Z,23.15
2019-03-01T13:28:16.875Z,21.97
2019-03-01T13:30:46.636Z,21.93
2019-03-01T13:33:16.047Z,21.95
2019-03-01T13:35:45.474Z,23.38
2019-03-01T13:38:18.068Z,22.25
2019-03-01T13:40:47.533Z,23.75
2019-03-01T13:43:16.954Z,21.90
2019-03-01T13:45:47.396Z,25.20
2019-03-01T13:48:19.026Z,29.45
2019-03-01T13:50:48.857Z,20.68
2019-03-01T13:53:18.297Z,12.25
2019-03-01T13:55:47.749Z,14.60
2019-03-01T13:58:17.161Z,12.37
2019-03-01T14:00:48.776Z,12.13
2019-03-01T14:03:20.827Z,14.35
2019-03-01T14:05:51.104Z,12.98
2019-03-01T14:08:20.185Z,15.30
2019-03-01T14:10:49.592Z,12.10
2019-03-01T14:13:19.014Z,9.75
2019-03-01T14:15:50.393Z,9.60
2019-03-01T14:18:19.922Z,23.70
2019-03-01T14:20:49.716Z,16.15
2019-03-01T14:23:21.235Z,13.65
2019-03-01T14:25:50.329Z,10.90
2019-03-01T14:28:19.753Z,10.10
2019-03-01T14:30:49.187Z,10.78
2019-03-01T14:33:18.961Z,10.53
2019-03-01T14:35:48.686Z,11.25
2019-03-01T14:38:18.158Z,11.60
2019-03-01T14:40:47.609Z,13.38
2019-03-01T14:43:20.258Z,16.37
2019-03-01T14:45:49.112Z,25.17
2019-03-01T14:48:18.524Z,30.95
2019-03-01T14:50:49.054Z,36.30
2019-03-01T14:53:18.929Z,40.33
2019-03-01T14:55:52.285Z,39.05
2019-03-01T14:58:25.750Z,38.98
2019-03-01T15:01:15.352Z,44.63
2019-03-01T15:03:44.814Z,43.78
2019-03-01T15:06:15.443Z,41.75
2019-03-01T15:08:46.055Z,42.93
2019-03-01T15:11:20.519Z,39.58
2019-03-01T15:13:51.298Z,37.28
2019-03-01T15:16:20.728Z,38.15
2019-03-01T15:18:50.237Z,38.90
2019-03-01T15:21:19.713Z,39.73
2019-03-01T15:23:49.251Z,40.33
2019-03-01T15:26:18.744Z,41.02
2019-03-01T15:29:06.066Z,39.10
2019-03-01T15:31:35.489Z,40.67
2019-03-01T15:34:04.989Z,38.45
2019-03-01T15:36:34.445Z,42.62
2019-03-01T15:39:05.857Z,43.00
2019-03-01T15:41:35.498Z,45.35
2019-03-01T15:44:05.560Z,36.28
2019-03-01T15:46:35.008Z,39.73
2019-03-01T15:49:05.240Z,38.55
2019-03-01T15:51:38.172Z,42.45
2019-03-01T15:54:06.818Z,37.15
2019-03-01T15:56:39.499Z,35.00
2019-03-01T15:59:09.478Z,36.03
2019-03-01T16:01:38.494Z,35.40
2019-03-01T16:04:07.915Z,37.17
2019-03-01T16:06:37.658Z,36.55
2019-03-01T16:09:13.462Z,38.05
2019-03-01T16:11:43.637Z,41.28
2019-03-01T16:14:13.144Z,41.88
2019-03-01T16:16:45.795Z,41.70
2019-03-01T16:19:14.597Z,40.25
2019-03-01T16:21:44.662Z,40.12
2019-03-01T16:24:14.210Z,40.85
2019-03-01T16:26:43.668Z,44.77
2019-03-01T16:29:13.383Z,43.45
2019-03-01T16:31:42.904Z,43.15
2019-03-01T16:34:12.346Z,41.68
2019-03-01T16:36:44.226Z,40.25
2019-03-01T16:39:16.376Z,41.15
2019-03-01T16:41:45.528Z,42.00
2019-03-01T16:44:14.968Z,45.60
2019-03-01T16:46:44.439Z,41.80
2019-03-01T16:49:13.938Z,41.23
2019-03-01T16:51:43.521Z,41.37
2019-03-01T16:54:16.285Z,41.10
2019-03-01T16:56:44.107Z,40.17
2019-03-01T16:59:13.635Z,38.78
2019-03-01T17:01:43.126Z,35.00
2019-03-01T17:04:13.043Z,32.93
2019-03-01T17:06:45.494Z,28.05
2019-03-01T17:09:15.577Z,28.87
2019-03-01T17:11:45.051Z,29.95
2019-03-01T17:14:15.945Z,29.02
2019-03-01T17:16:45.561Z,33.28
2019-03-01T17:19:14.996Z,33.53
2019-03-01T17:21:47.653Z,33.55
2019-03-01T17:24:17.145Z,34.78
2019-03-01T17:26:46.615Z,35.85
2019-03-01T17:29:16.053Z,39.05
2019-03-01T17:31:45.509Z,34.80
2019-03-01T17:34:14.975Z,34.85
2019-03-01T17:36:44.410Z,34.38
2019-03-01T17:39:16.658Z,31.85
2019-03-01T17:41:48.242Z,33.10
2019-03-01T17:44:16.822Z,33.30
2019-03-01T17:46:46.665Z,31.17
2019-03-01T17:49:16.141Z,31.93
2019-03-01T17:51:45.675Z,32.55
2019-03-01T17:54:15.496Z,32.17
2019-03-01T17:56:44.953Z,38.02
2019-03-01T17:59:14.423Z,33.78
2019-03-01T18:01:43.929Z,34.00
2019-03-01T18:04:13.372Z,32.05
2019-03-01T18:06:43.156Z,34.30
2019-03-01T18:09:13.234Z,31.45
2019-03-01T18:11:44.570Z,29.20
2019-03-01T18:14:14.914Z,28.55
2019-03-01T18:16:44.461Z,32.08
2019-03-01T18:19:13.857Z,29.85
2019-03-01T18:21:46.345Z,28.38
2019-03-01T18:24:15.209Z,30.45
2019-03-01T18:26:44.778Z,29.27
2019-03-01T18:29:14.239Z,28.55
2019-03-01T18:31:43.665Z,28.85
2019-03-01T18:34:13.438Z,28.38
2019-03-01T18:36:42.918Z,29.63
2019-03-01T18:39:12.663Z,28.27
2019-03-01T18:41:42.092Z,31.73
2019-03-01T18:44:11.556Z,29.75
2019-03-01T18:46:41.037Z,31.00
2019-03-01T18:49:10.869Z,31.50
2019-03-01T18:51:43.261Z,29.05
2019-03-01T18:54:11.415Z,30.50
2019-03-01T18:56:40.913Z,29.72
2019-03-01T18:59:10.430Z,30.35
2019-03-01T19:01:42.930Z,29.12
2019-03-01T19:04:12.941Z,29.35
2019-03-01T19:06:42.522Z,29.90
2019-03-01T19:09:16.125Z,29.18
2019-03-01T19:11:43.814Z,28.60
2019-03-01T19:14:13.421Z,28.60
2019-03-01T19:16:42.988Z,28.77
2019-03-01T19:19:14.807Z,29.25
2019-03-01T19:21:44.393Z,31.77
2019-03-01T19:24:13.884Z,28.35
2019-03-01T19:26:43.403Z,28.00
2019-03-01T19:29:12.949Z,27.62
2019-03-01T19:31:42.824Z,27.48
2019-03-01T19:34:13.058Z,27.50
2019-03-01T19:36:43.888Z,26.65
2019-03-01T19:39:23.175Z,26.52
2019-03-01T19:41:54.469Z,23.10
2019-03-01T19:44:25.643Z,23.98
2019-03-01T19:46:55.876Z,22.60
2019-03-01T19:49:25.362Z,22.93
2019-03-01T19:51:54.837Z,21.45
2019-03-01T19:54:24.361Z,22.20
2019-03-01T19:57:01.557Z,22.55
2019-03-01T19:59:29.940Z,23.87
2019-03-01T20:01:59.476Z,21.80
2019-03-01T20:04:31.060Z,21.70
2019-03-01T20:07:01.404Z,21.33
2019-03-01T20:09:31.483Z,21.70
2019-03-01T20:12:02.698Z,22.62
2019-03-01T20:14:34.536Z,23.15
2019-03-01T20:17:04.546Z,22.77
2019-03-01T20:19:34.095Z,23.57
2019-03-01T20:22:04.080Z,21.82
2019-03-01T20:24:33.635Z,19.90
2019-03-01T20:27:03.892Z,18.17
2019-03-01T20:29:33.727Z,17.55
2019-03-01T20:32:04.445Z,21.60
2019-03-01T20:34:34.771Z,21.27
2019-03-01T20:37:05.731Z,19.52
2019-03-01T20:39:35.591Z,19.67
2019-03-01T20:42:05.065Z,20.05
2019-03-01T20:44:34.634Z,18.48
2019-03-01T20:47:04.247Z,19.60
2019-03-01T20:49:35.768Z,19.05
2019-03-01T20:52:04.867Z,20.25
2019-03-01T20:54:34.416Z,21.85
2019-03-01T20:57:03.950Z,19.75
2019-03-01T20:59:36.294Z,21.50
2019-03-01T21:02:06.241Z,21.52
2019-03-01T21:04:36.654Z,18.37
2019-03-01T21:07:06.812Z,17.25
2019-03-01T21:09:37.694Z,18.07
2019-03-01T21:12:07.477Z,17.62
2019-03-01T21:14:37.599Z,16.77
2019-03-01T21:17:07.167Z,17.42
2019-03-01T21:19:36.627Z,18.07
2019-03-01T21:22:06.522Z,18.77
2019-03-01T21:24:35.967Z,21.00
2019-03-01T21:27:05.522Z,21.35
2019-03-01T21:29:35.461Z,19.15
2019-03-01T21:32:05.025Z,18.50
2019-03-01T21:34:38.083Z,21.57
2019-03-01T21:37:06.094Z,19.77
2019-03-01T21:39:35.635Z,19.48
2019-03-01T21:42:05.055Z,19.50
2019-03-01T21:44:34.583Z,18.95
2019-03-01T21:47:06.999Z,18.52
2019-03-01T21:49:35.166Z,17.98
2019-03-01T21:52:04.718Z,16.25
2019-03-01T21:54:34.209Z,16.25
2019-03-01T21:57:03.777Z,15.00
2019-03-01T21:59:33.312Z,14.47
2019-03-01T22:02:02.775Z,14.68
2019-03-01T22:04:51.616Z,13.70
2019-03-01T22:07:21.519Z,14.33
2019-03-01T22:09:51.190Z,15.68
2019-03-01T22:12:24.645Z,15.90
2019-03-01T22:14:53.413Z,15.90
2019-03-01T22:17:22.897Z,16.10
2019-03-01T22:19:52.369Z,16.35
2019-03-01T22:22:21.886Z,15.25
2019-03-01T22:24:51.756Z,15.93
2019-03-01T22:27:21.503Z,15.50
2019-03-01T22:29:52.373Z,17.75
2019-03-01T22:32:21.848Z,17.50
2019-03-01T22:34:51.283Z,15.45
2019-03-01T22:37:20.899Z,16.17
2019-03-01T22:39:51.454Z,18.73
2019-03-01T22:42:20.944Z,17.55
2019-03-01T22:44:50.909Z,16.95
2019-03-01T22:47:20.609Z,16.30
2019-03-01T22:49:50.033Z,17.85
2019-03-01T22:52:19.823Z,17.82
2019-03-01T22:54:49.233Z,16.50
2019-03-01T22:57:22.453Z,17.35
2019-03-01T22:59:49.819Z,19.10
2019-03-01T23:02:20.899Z,18.35
2019-03-01T23:04:50.728Z,17.02
2019-03-01T23:07:23.410Z,18.87
2019-03-01T23:09:51.255Z,17.82
2019-03-01T23:12:20.662Z,18.20
2019-03-01T23:14:50.114Z,17.20
2019-03-01T23:17:19.547Z,19.25
2019-03-01T23:19:51.615Z,17.05
2019-03-01T23:22:20.091Z,17.82
2019-03-01T23:24:49.566Z,17.00
2019-03-01T23:27:18.971Z,17.85
2019-03-01T23:29:50.961Z,17.20
2019-03-01T23:32:19.907Z,18.40
2019-03-01T23:34:49.323Z,19.25
2019-03-01T23:37:18.778Z,20.20
2019-03-01T23:39:48.296Z,19.32
2019-03-01T23:42:20.770Z,17.62
2019-03-01T23:44:49.178Z,19.90
2019-03-01T23:47:18.597Z,19.62
2019-03-01T23:49:48.129Z,18.90
2019-03-01T23:52:19.595Z,18.67
2019-03-01T23:54:48.607Z,18.25
2019-03-01T23:57:18.411Z,18.98
2019-03-01T23:59:47.845Z,20.70
